Time;durP1;ratioP1;P1;durP2;ratioP2;P2;SDS_P1;SDS_P2;PMS_P1;PMS_P2;Temp;Humidity;BMP_temperature;BMP_pressure;BME280_temperature;BME280_humidity;BME280_pressure;Samples;Min_cycle;Max_cycle;Signal;HPM_P1;HPM_P2
2022/09/06 00:00:33;;;;;;;1.33;1.23;;;;;;;16.82;77.11;100133.81;5054709;28;20041;-68
2022/09/06 00:03:04;;;;;;;1.27;1.17;;;;;;;16.81;76.97;100137.28;5054875;28;20041;-69
2022/09/06 00:05:33;;;;;;;1.13;1.02;;;;;;;16.79;77.06;100136.47;5054572;28;20049;-69
2022/09/06 00:08:04;;;;;;;1.17;1.08;;;;;;;16.80;77.31;100133.00;5054833;28;20398;-69
2022/09/06 00:10:34;;;;;;;0.70;0.70;;;;;;;16.80;77.40;100133.00;5053536;28;20076;-69
2022/09/06 00:13:04;;;;;;;1.27;1.00;;;;;;;16.77;77.52;100119.31;5054390;28;20097;-69
2022/09/06 00:15:35;;;;;;;1.50;1.33;;;;;;;16.82;77.19;100130.41;5054578;28;20060;-69
2022/09/06 00:18:07;;;;;;;1.17;1.05;;;;;;;16.79;77.31;100126.16;5054742;28;20073;-69
2022/09/06 00:20:40;;;;;;;1.80;0.80;;;;;;;16.79;77.21;100126.16;5055197;28;20479;-69
2022/09/06 00:23:09;;;;;;;0.50;0.50;;;;;;;16.75;77.43;100121.91;5054498;28;20053;-69
2022/09/06 00:25:37;;;;;;;1.30;0.88;;;;;;;16.72;77.36;100114.25;5054242;28;20072;-69
2022/09/06 00:28:06;;;;;;;1.13;1.03;;;;;;;16.70;77.48;100123.72;5054179;28;20511;-69
2022/09/06 00:30:35;;;;;;;0.50;0.50;;;;;;;16.73;77.78;100126.25;5054436;28;20098;-68
2022/09/06 00:33:05;;;;;;;0.70;0.70;;;;;;;16.69;77.55;100124.63;5054013;28;20507;-69
2022/09/06 00:35:34;;;;;;;1.02;0.98;;;;;;;16.66;77.50;100127.25;5053881;28;20450;-69
2022/09/06 00:38:02;;;;;;;1.30;0.82;;;;;;;16.63;77.82;100122.13;5054274;28;20083;-69
2022/09/06 00:40:35;;;;;;;0.60;0.60;;;;;;;16.59;77.86;100117.94;5053974;28;20099;-69
2022/09/06 00:43:03;;;;;;;0.50;0.50;;;;;;;16.59;77.47;100129.09;5053938;28;20049;-69
2022/09/06 00:45:33;;;;;;;1.38;1.27;;;;;;;16.59;77.64;100128.25;5054151;28;20479;-69
2022/09/06 00:48:05;;;;;;;0.73;0.68;;;;;;;16.60;77.60;100124.78;5053811;28;20139;-69
2022/09/06 00:50:35;;;;;;;1.20;1.08;;;;;;;16.60;78.11;100125.63;5053829;28;20124;-69
2022/09/06 00:53:04;;;;;;;1.30;1.00;;;;;;;16.58;77.73;100123.97;5054317;28;20048;-68
2022/09/06 00:55:33;;;;;;;1.63;1.33;;;;;;;16.60;77.97;100119.66;5053719;28;20094;-69
2022/09/06 00:58:03;;;;;;;1.27;0.85;;;;;;;16.61;77.77;100123.91;5053575;28;20282;-68
2022/09/06 01:00:31;;;;;;;0.82;0.82;;;;;;;16.57;77.36;100117.09;5053637;28;20533;-69
2022/09/06 01:03:00;;;;;;;0.67;0.67;;;;;;;16.52;77.68;100111.19;5054177;28;20037;-69
2022/09/06 01:05:39;;;;;;;0.47;0.47;;;;;;;16.52;77.82;100121.50;5053606;28;20099;-70
2022/09/06 01:08:43;;;;;;;1.88;1.17;;;;;;;16.47;77.76;100105.22;5052377;28;20075;-69
2022/09/06 01:11:29;;;;;;;3.35;0.90;;;;;;;16.45;77.61;100109.56;5053768;28;20033;-68
2022/09/06 01:14:11;;;;;;;0.70;0.70;;;;;;;16.48;78.08;100114.66;5054081;28;20059;-69
2022/09/06 01:16:46;;;;;;;1.25;1.15;;;;;;;16.50;77.59;100106.03;5053784;28;20045;-69
2022/09/06 01:19:46;;;;;;;1.55;1.33;;;;;;;16.42;77.65;100105.31;5053380;28;20059;-69
2022/09/06 01:22:37;;;;;;;0.60;0.60;;;;;;;16.39;78.04;100109.66;5050763;28;20045;-70
2022/09/06 01:25:22;;;;;;;0.57;0.50;;;;;;;16.42;77.73;100114.75;5053467;28;20041;-69
2022/09/06 01:28:16;;;;;;;0.82;0.80;;;;;;;16.37;77.77;100111.41;5053361;28;20581;-69
2022/09/06 01:30:57;;;;;;;0.52;0.52;;;;;;;16.37;77.85;100106.25;5047755;28;20048;-69
2022/09/06 01:33:34;;;;;;;1.23;1.05;;;;;;;16.33;77.83;100109.78;5053450;28;20056;-68
2022/09/06 01:36:07;;;;;;;0.63;0.63;;;;;;;16.32;78.07;100102.91;5053584;28;20076;-69
2022/09/06 01:38:36;;;;;;;0.80;0.80;;;;;;;16.33;78.11;100110.63;5053605;28;20566;-69
2022/09/06 01:41:05;;;;;;;1.02;0.93;;;;;;;16.31;78.04;100101.22;5053548;28;20072;-70
2022/09/06 01:43:39;;;;;;;1.27;0.90;;;;;;;16.27;77.80;100115.03;5053187;28;20394;-69
2022/09/06 01:46:17;;;;;;;0.88;0.77;;;;;;;16.26;78.05;100105.59;5053546;28;20075;-70
2022/09/06 01:49:18;;;;;;;0.50;0.50;;;;;;;16.25;77.96;100103.88;5053283;28;20041;-69
2022/09/06 01:51:57;;;;;;;1.10;1.05;;;;;;;16.23;78.27;100103.94;5053441;28;20099;-69
2022/09/06 01:54:35;;;;;;;0.67;0.67;;;;;;;16.22;77.83;100096.25;5053221;28;20059;-69
2022/09/06 01:57:18;;;;;;;0.95;0.85;;;;;;;16.20;77.83;100100.53;5053422;28;20132;-69
2022/09/06 02:00:04;;;;;;;1.27;1.08;;;;;;;16.16;77.67;100098.91;5053304;28;20048;-69
2022/09/06 02:02:52;;;;;;;2.35;1.00;;;;;;;16.11;78.26;100098.97;5053186;28;20069;-69
2022/09/06 02:05:28;;;;;;;0.73;0.50;;;;;;;16.12;78.07;100105.84;5053064;28;20045;-68
2022/09/06 02:08:01;;;;;;;1.13;1.02;;;;;;;16.12;78.12;100094.69;5052954;28;20053;-69
2022/09/06 02:10:37;;;;;;;1.27;1.05;;;;;;;16.13;78.20;100093.78;5053087;28;20049;-69
2022/09/06 02:13:09;;;;;;;1.50;1.40;;;;;;;16.16;78.35;100096.31;5053284;28;20132;-69
2022/09/06 02:15:42;;;;;;;2.60;1.58;;;;;;;16.18;78.17;100102.28;5052875;28;20128;-68
2022/09/06 02:18:17;;;;;;;0.57;0.57;;;;;;;16.15;78.06;100100.63;5052879;28;20060;-70
2022/09/06 02:20:49;;;;;;;0.90;0.90;;;;;;;16.09;78.06;100104.16;5053133;28;20045;-69
2022/09/06 02:23:23;;;;;;;0.75;0.75;;;;;;;16.03;78.05;100105.97;5052932;28;20049;-69
2022/09/06 02:25:57;;;;;;;1.52;1.10;;;;;;;15.96;78.59;100102.66;5053148;28;20048;-69
2022/09/06 02:28:26;;;;;;;0.75;0.70;;;;;;;15.96;78.57;100100.06;5052809;28;20045;-70
2022/09/06 02:30:59;;;;;;;0.85;0.85;;;;;;;15.96;78.36;100099.22;5052652;28;20045;-69
2022/09/06 02:33:32;;;;;;;0.80;0.80;;;;;;;15.96;78.86;100100.06;5053054;28;20175;-70
2022/09/06 02:36:05;;;;;;;0.40;0.40;;;;;;;15.94;78.92;100101.81;5056563;28;20045;-69
2022/09/06 02:38:37;;;;;;;0.75;0.75;;;;;;;15.90;78.49;100115.63;5056347;28;20049;-69
2022/09/06 02:41:07;;;;;;;0.63;0.63;;;;;;;15.91;79.01;100101.00;5056439;28;20083;-69
2022/09/06 02:43:35;;;;;;;;;;;;;;;15.90;78.77;100100.19;5056557;28;20479;-70
2022/09/06 02:46:04;;;;;;;1.05;0.95;;;;;;;15.92;78.90;100107.88;5055140;28;19920;-70
2022/09/06 02:48:34;;;;;;;1.27;0.97;;;;;;;15.92;78.66;100100.16;5056372;28;20037;-70
2022/09/06 02:51:04;;;;;;;6.68;1.55;;;;;;;15.95;78.96;100102.69;5056251;28;20083;-69
2022/09/06 02:53:33;;;;;;;0.60;0.60;;;;;;;15.94;78.78;100096.69;5055973;28;20072;-70
2022/09/06 02:56:02;;;;;;;0.67;0.63;;;;;;;15.96;79.10;100088.91;5056153;28;20398;-69
2022/09/06 02:58:31;;;;;;;0.90;0.88;;;;;;;15.97;79.32;100096.63;5055954;28;20760;-68
2022/09/06 03:00:59;;;;;;;0.88;0.77;;;;;;;15.99;78.79;100089.75;5056039;28;20071;-69
2022/09/06 03:03:28;;;;;;;1.00;0.88;;;;;;;16.01;78.94;100087.13;5056015;28;20044;-69
2022/09/06 03:05:58;;;;;;;0.70;0.70;;;;;;;16.01;78.95;100093.13;5056796;28;20487;-69
2022/09/06 03:08:32;;;;;;;0.50;0.50;;;;;;;16.00;78.72;100086.25;5055827;28;20040;-70
2022/09/06 03:11:01;;;;;;;1.17;0.85;;;;;;;15.99;79.04;100079.44;5055572;28;20136;-69
2022/09/06 03:13:30;;;;;;;0.75;0.60;;;;;;;15.95;79.05;100071.78;5055598;28;20068;-70
2022/09/06 03:16:00;;;;;;;1.33;1.23;;;;;;;16.03;78.73;100080.22;5055478;28;20041;-68
2022/09/06 03:18:30;;;;;;;2.05;1.27;;;;;;;16.00;79.21;100070.00;5056104;28;20080;-70
2022/09/06 03:21:00;;;;;;;1.50;0.82;;;;;;;15.99;79.06;100084.59;5055953;28;20516;-69
2022/09/06 03:23:30;;;;;;;2.33;0.80;;;;;;;15.97;79.41;100075.19;5055401;28;20045;-69
2022/09/06 03:25:58;;;;;;;1.50;0.77;;;;;;;15.95;79.25;100074.38;5055356;28;20075;-70
2022/09/06 03:28:27;;;;;;;1.27;0.85;;;;;;;15.95;79.20;100075.22;5055618;28;20074;-69
2022/09/06 03:30:57;;;;;;;4.18;2.10;;;;;;;15.96;78.92;100081.19;5055198;28;20048;-69
2022/09/06 03:33:26;;;;;;;;;;;;;;;15.95;79.13;100077.78;5055892;28;20033;-69
2022/09/06 03:35:57;;;;;;;0.73;0.73;;;;;;;15.95;79.11;100071.78;5055674;28;19933;-70
2022/09/06 03:38:29;;;;;;;0.95;0.77;;;;;;;15.95;78.86;100067.50;5055115;28;20052;-70
2022/09/06 03:40:58;;;;;;;0.70;0.70;;;;;;;15.94;79.40;100065.78;5055166;28;20053;-69
2022/09/06 03:43:28;;;;;;;0.80;0.80;;;;;;;15.94;79.12;100060.63;5055251;28;20048;-69
2022/09/06 03:45:57;;;;;;;0.90;0.77;;;;;;;15.93;79.18;100056.34;5054925;28;20110;-70
2022/09/06 03:48:28;;;;;;;2.28;1.85;;;;;;;15.85;78.96;100055.66;5055246;28;20033;-69
2022/09/06 03:50:59;;;;;;;2.10;0.98;;;;;;;15.87;79.49;100059.03;5054960;28;20045;-69
2022/09/06 03:53:29;;;;;;;1.02;0.85;;;;;;;15.86;79.16;100059.91;5054984;28;20053;-68
2022/09/06 03:55:58;;;;;;;1.67;0.95;;;;;;;15.85;79.09;100059.94;5055039;28;20045;-70
2022/09/06 03:58:31;;;;;;;2.03;1.05;;;;;;;15.84;79.50;100064.22;5055006;28;20040;-70
2022/09/06 04:01:03;;;;;;;0.50;0.50;;;;;;;15.84;79.66;100061.66;5054731;28;20049;-69
2022/09/06 04:03:32;;;;;;;1.85;1.15;;;;;;;15.83;79.31;100052.25;5054429;28;20140;-69
2022/09/06 04:06:02;;;;;;;1.60;1.50;;;;;;;15.85;79.61;100060.78;5054586;28;20045;-69
2022/09/06 04:08:32;;;;;;;0.73;0.73;;;;;;;15.84;79.31;100051.34;5054354;28;20061;-71
2022/09/06 04:11:01;;;;;;;0.70;0.70;;;;;;;15.85;79.60;100058.22;5054785;28;20384;-70
2022/09/06 04:13:33;;;;;;;0.60;0.60;;;;;;;15.84;79.13;100059.06;5054384;28;20037;-70
2022/09/06 04:16:02;;;;;;;1.48;1.15;;;;;;;15.81;79.42;100053.97;5054670;28;20076;-70
2022/09/06 04:18:31;;;;;;;0.57;0.57;;;;;;;15.78;79.40;100059.19;5054641;28;20070;-69
2022/09/06 04:21:00;;;;;;;1.48;1.38;;;;;;;15.78;79.40;100059.19;5054621;28;20063;-69
2022/09/06 04:23:29;;;;;;;1.20;1.10;;;;;;;15.79;79.23;100062.59;5054131;28;20041;-69
2022/09/06 04:26:00;;;;;;;1.43;1.33;;;;;;;15.78;79.25;100056.63;5054488;28;20103;-70
2022/09/06 04:28:29;;;;;;;1.40;1.27;;;;;;;15.81;79.15;100059.13;5054456;28;20083;-70
2022/09/06 04:31:00;;;;;;;0.63;0.60;;;;;;;15.82;79.61;100065.97;5054176;28;20045;-69
2022/09/06 04:33:34;;;;;;;0.70;0.68;;;;;;;15.84;79.33;100069.38;5054354;28;20071;-69
2022/09/06 04:36:04;;;;;;;1.70;1.60;;;;;;;15.87;79.40;100063.34;5053979;28;20049;-70
2022/09/06 04:38:36;;;;;;;0.65;0.50;;;;;;;15.90;79.41;100069.28;5054337;28;20075;-69
2022/09/06 04:41:08;;;;;;;0.80;0.80;;;;;;;15.85;79.16;100060.78;5054265;28;20367;-69
2022/09/06 04:43:37;;;;;;;1.02;0.93;;;;;;;15.95;79.51;100070.06;5054188;28;20040;-69
2022/09/06 04:46:11;;;;;;;1.00;0.90;;;;;;;16.02;78.90;100079.41;5054071;28;20038;-69
2022/09/06 04:48:40;;;;;;;0.90;0.90;;;;;;;16.04;78.99;100082.78;5054118;28;20057;-70
2022/09/06 04:51:08;;;;;;;1.67;1.58;;;;;;;16.09;78.82;100068.13;5053702;28;20072;-69
2022/09/06 04:53:37;;;;;;;1.25;1.15;;;;;;;16.15;78.83;100068.88;5053701;28;20495;-69
2022/09/06 04:56:07;;;;;;;2.28;1.65;;;;;;;16.22;78.81;100070.47;5053809;28;20037;-69
2022/09/06 04:58:36;;;;;;;1.38;1.27;;;;;;;16.29;78.70;100064.34;5053853;28;20403;-69
2022/09/06 05:01:05;;;;;;;3.30;2.15;;;;;;;16.34;78.81;100057.38;5053971;28;20048;-69
2022/09/06 05:03:34;;;;;;;0.80;0.80;;;;;;;16.43;78.71;100065.81;5053642;28;20045;-69
2022/09/06 05:06:08;;;;;;;5.90;0.93;;;;;;;16.51;78.67;100069.09;5053464;28;20103;-69
2022/09/06 05:08:38;;;;;;;0.95;0.90;;;;;;;16.53;78.85;100069.09;5053385;28;20060;-69
2022/09/06 05:11:09;;;;;;;0.88;0.88;;;;;;;16.62;78.69;100067.19;5054238;28;20437;-69
2022/09/06 05:13:38;;;;;;;0.60;0.60;;;;;;;16.67;78.45;100070.53;5053584;28;20088;-69
2022/09/06 05:16:08;;;;;;;1.30;1.10;;;;;;;16.74;78.32;100066.09;5053483;28;20040;-68
2022/09/06 05:18:37;;;;;;;0.63;0.63;;;;;;;16.80;78.44;100071.13;5053410;28;20045;-69
2022/09/06 05:21:06;;;;;;;6.55;2.58;;;;;;;16.86;78.57;100072.75;5053715;28;20446;-69
2022/09/06 05:23:35;;;;;;;1.17;1.08;;;;;;;16.92;78.20;100062.28;5053390;28;20044;-68
2022/09/06 05:26:05;;;;;;;3.70;2.45;;;;;;;16.96;77.86;100069.97;5053255;28;20044;-68
2022/09/06 05:28:35;;;;;;;0.98;0.88;;;;;;;17.03;77.60;100068.94;5053251;28;20049;-68
2022/09/06 05:31:09;;;;;;;1.95;1.65;;;;;;;17.08;77.72;100067.13;5053372;28;20056;-68
2022/09/06 05:33:38;;;;;;;14.98;1.27;;;;;;;17.20;77.21;100064.25;5053661;28;20045;-69
2022/09/06 05:36:07;;;;;;;1.65;1.55;;;;;;;17.29;76.94;100064.09;5053336;28;20090;-68
2022/09/06 05:38:36;;;;;;;1.83;1.42;;;;;;;17.37;76.37;100059.56;5053480;28;20056;-68
2022/09/06 05:41:05;;;;;;;0.70;0.70;;;;;;;17.42;76.06;100062.91;5053247;28;20494;-69
2022/09/06 05:43:35;;;;;;;1.52;1.20;;;;;;;17.49;75.77;100062.78;5053485;28;20037;-69
2022/09/06 05:46:04;;;;;;;3.03;1.00;;;;;;;17.56;75.30;100066.97;5053119;28;20127;-67
2022/09/06 05:48:33;;;;;;;0.85;0.80;;;;;;;17.58;74.70;100067.78;5053160;28;20108;-68
2022/09/06 05:51:06;;;;;;;1.80;1.67;;;;;;;17.65;74.50;100064.16;5053106;28;20053;-69
2022/09/06 05:53:36;;;;;;;0.98;0.93;;;;;;;17.74;74.41;100062.22;5053112;28;20124;-67
2022/09/06 05:56:06;;;;;;;1.10;0.90;;;;;;;17.86;73.93;100068.81;5053055;28;20053;-68
2022/09/06 05:58:37;;;;;;;2.55;1.70;;;;;;;17.96;73.85;100060.81;5053005;28;20045;-68
2022/09/06 06:01:08;;;;;;;1.60;1.50;;;;;;;18.06;73.17;100056.28;5053089;28;20130;-67
2022/09/06 06:03:37;;;;;;;10.43;2.67;;;;;;;18.18;72.90;100055.97;5053261;28;20049;-68
2022/09/06 06:06:06;;;;;;;1.43;1.33;;;;;;;18.32;72.83;100053.88;5052913;28;20049;-68
2022/09/06 06:08:35;;;;;;;1.23;0.93;;;;;;;18.41;72.37;100058.78;5054253;28;20049;-68
2022/09/06 06:11:04;;;;;;;1.23;0.95;;;;;;;18.50;72.02;100068.91;5056950;28;20045;-68
2022/09/06 06:13:38;;;;;;;0.87;0.87;;;;;;;18.55;71.76;100072.22;5056757;28;20052;-68
2022/09/06 06:16:10;;;;;;;0.90;0.80;;;;;;;18.58;71.58;100066.97;5056974;28;20794;-68
2022/09/06 06:18:40;;;;;;;0.57;0.57;;;;;;;18.59;71.57;100063.50;5056648;28;20036;-68
2022/09/06 06:21:13;;;;;;;;;;;;;;;18.67;71.19;100071.88;5057249;28;20041;-68
2022/09/06 06:23:43;;;;;;;2.20;1.10;;;;;;;18.69;71.24;100072.69;5056786;28;20031;-68
2022/09/06 06:26:12;;;;;;;3.05;1.00;;;;;;;18.70;71.43;100065.78;5056555;28;20045;-68
2022/09/06 06:28:41;;;;;;;0.77;0.73;;;;;;;18.74;71.03;100063.06;5057000;28;20399;-68
2022/09/06 06:31:13;;;;;;;0.80;0.80;;;;;;;18.74;71.06;100062.22;5056391;28;20499;-68
2022/09/06 06:33:43;;;;;;;1.40;1.08;;;;;;;18.81;71.10;100060.31;5056327;28;20124;-68
2022/09/06 06:36:20;;;;;;;0.55;0.55;;;;;;;19.00;71.01;100069.25;5056581;28;20072;-68
2022/09/06 06:38:52;;;;;;;1.55;0.77;;;;;;;19.19;70.57;100073.00;5064930;28;20041;-68
2022/09/06 06:41:24;;;;;;;0.75;0.75;;;;;;;19.30;70.20;100073.53;5076093;28;20107;-68
2022/09/06 06:43:53;;;;;;;2.63;1.13;;;;;;;19.45;69.90;100077.44;5076471;28;20124;-68
2022/09/06 06:46:25;;;;;;;1.77;1.05;;;;;;;19.52;69.70;100079.78;5073912;28;20049;-70
2022/09/06 06:48:54;;;;;;;0.50;0.50;;;;;;;19.63;69.40;100082.88;5056082;28;20049;-67
2022/09/06 06:51:25;;;;;;;0.85;0.85;;;;;;;19.80;69.16;100075.44;5056113;28;20170;-68
2022/09/06 06:53:55;;;;;;;0.73;0.73;;;;;;;19.96;68.62;100081.00;5055870;28;20049;-67
2022/09/06 06:56:26;;;;;;;0.75;0.73;;;;;;;20.08;68.38;100081.41;5055917;28;20135;-68
2022/09/06 06:58:58;;;;;;;1.23;1.02;;;;;;;20.21;68.39;100081.00;5055687;28;20483;-68
2022/09/06 07:01:30;;;;;;;1.08;1.00;;;;;;;20.37;68.06;100087.41;5056506;28;20570;-68
2022/09/06 07:03:59;;;;;;;0.73;0.73;;;;;;;20.57;67.54;100090.16;5055696;28;20068;-68
2022/09/06 07:06:28;;;;;;;0.90;0.83;;;;;;;20.73;67.08;100084.38;5055683;28;20037;-67
2022/09/06 07:09:17;;;;;;;;;;;;;;;20.96;66.46;100086.16;5055791;28;20498;-68
2022/09/06 07:11:47;;;;;;;1.17;0.77;;;;;;;21.05;65.42;100080.66;5055837;28;19944;-67
2022/09/06 07:14:16;;;;;;;1.40;1.10;;;;;;;21.13;64.96;100086.41;5055715;28;20132;-68
2022/09/06 07:16:46;;;;;;;0.60;0.60;;;;;;;21.10;64.43;100076.13;5055591;28;20041;-68
2022/09/06 07:19:15;;;;;;;1.02;0.98;;;;;;;21.09;64.34;100084.81;5055259;28;20056;-68
2022/09/06 07:22:04;;;;;;;1.60;0.90;;;;;;;21.10;64.69;100081.34;5055407;28;20047;-68
2022/09/06 07:24:34;;;;;;;1.23;1.08;;;;;;;21.18;64.45;100083.66;5055674;28;20510;-68
2022/09/06 07:27:03;;;;;;;0.70;0.70;;;;;;;21.19;63.58;100086.19;5055686;28;20103;-68
2022/09/06 07:29:51;;;;;;;2.30;1.35;;;;;;;21.28;63.82;100085.81;5054738;28;20049;-69
2022/09/06 07:32:21;;;;;;;1.10;1.00;;;;;;;21.34;63.24;100083.00;5063406;28;20029;-68
2022/09/06 07:34:51;;;;;;;0.93;0.85;;;;;;;21.35;63.52;100084.69;5060827;28;20099;-68
2022/09/06 07:37:20;;;;;;;;;;;;;;;21.42;63.37;100081.88;5055741;28;20127;-68
2022/09/06 07:39:49;;;;;;;1.17;0.70;;;;;;;21.62;63.16;100087.16;5054931;28;19921;-68
2022/09/06 07:42:19;;;;;;;0.98;0.95;;;;;;;21.94;62.63;100086.72;5067203;28;20044;-68
2022/09/06 07:44:47;;;;;;;1.17;0.95;;;;;;;22.20;61.99;100085.66;5074942;28;20033;-69
2022/09/06 07:47:16;;;;;;;2.83;1.13;;;;;;;22.31;61.05;100076.50;5075111;28;20450;-68
2022/09/06 07:50:07;;;;;;;0.68;0.68;;;;;;;22.33;60.79;100069.47;5074643;28;20058;-68
2022/09/06 07:52:56;;;;;;;0.68;0.68;;;;;;;22.26;60.26;100075.00;5073480;28;20124;-68
2022/09/06 07:55:45;;;;;;;1.30;0.73;;;;;;;22.13;59.99;100069.47;5074927;28;20106;-68
2022/09/06 07:58:14;;;;;;;1.03;0.87;;;;;;;22.05;59.83;100068.94;5074861;28;20078;-68
2022/09/06 08:00:42;;;;;;;1.38;1.20;;;;;;;21.99;60.20;100071.78;5074918;28;20132;-68
2022/09/06 08:03:11;;;;;;;1.30;1.07;;;;;;;21.95;60.16;100067.63;5074405;28;20036;-68
2022/09/06 08:05:41;;;;;;;2.00;1.27;;;;;;;21.91;60.26;100066.91;5074821;28;20545;-68
2022/09/06 08:08:30;;;;;;;1.92;1.42;;;;;;;21.91;60.39;100064.31;5074194;28;20078;-67
2022/09/06 08:11:20;;;;;;;1.20;1.00;;;;;;;21.91;60.16;100069.50;5067176;28;20067;-68
2022/09/06 08:13:53;;;;;;;0.50;0.50;;;;;;;21.91;59.95;100071.25;5069135;28;20406;-68
2022/09/06 08:16:24;;;;;;;1.92;1.13;;;;;;;21.91;60.26;100072.09;5071373;28;20571;-68
2022/09/06 08:18:55;;;;;;;1.52;0.95;;;;;;;21.91;60.36;100071.25;5054257;28;20045;-68
2022/09/06 08:21:28;;;;;;;0.60;0.60;;;;;;;21.87;60.45;100072.28;5054294;28;20099;-68
2022/09/06 08:23:59;;;;;;;1.10;1.00;;;;;;;21.79;61.41;100061.31;5054374;28;20126;-68
2022/09/06 08:26:29;;;;;;;0.82;0.82;;;;;;;21.78;61.04;100067.44;5053977;28;20102;-68
2022/09/06 08:28:59;;;;;;;1.83;0.95;;;;;;;21.75;61.06;100072.75;5053985;28;20066;-68
2022/09/06 08:31:30;;;;;;;0.93;0.88;;;;;;;21.74;60.97;100081.47;5053729;28;20395;-69
2022/09/06 08:34:01;;;;;;;0.70;0.70;;;;;;;21.73;61.78;100071.97;5063749;28;20067;-68
2022/09/06 08:36:32;;;;;;;0.73;0.70;;;;;;;21.68;62.59;100060.91;5056667;28;20384;-69
2022/09/06 08:39:04;;;;;;;0.95;0.77;;;;;;;21.69;61.56;100065.22;5053868;28;20124;-68
2022/09/06 08:41:37;;;;;;;0.65;0.65;;;;;;;21.69;61.54;100070.41;5060303;28;20073;-69
2022/09/06 08:44:10;;;;;;;1.05;0.80;;;;;;;21.69;63.69;100066.03;5074256;28;20072;-68
2022/09/06 08:47:00;;;;;;;1.10;1.00;;;;;;;21.64;65.51;100073.19;5069654;28;20044;-71
2022/09/06 08:49:32;;;;;;;2.88;1.85;;;;;;;21.63;65.78;100066.28;5059301;28;20052;-68
2022/09/06 08:52:22;;;;;;;0.65;0.65;;;;;;;21.63;65.47;100073.22;5053602;28;20494;-68
2022/09/06 08:54:59;;;;;;;1.10;1.00;;;;;;;21.66;64.56;100073.13;5054001;28;20137;-69
2022/09/06 08:57:46;;;;;;;2.10;1.33;;;;;;;21.68;64.33;100064.34;5053748;28;20044;-68
2022/09/06 09:00:15;;;;;;;1.10;0.88;;;;;;;21.69;65.30;100060.00;5053780;28;20501;-69
2022/09/06 09:02:46;;;;;;;0.60;0.60;;;;;;;21.66;65.83;100054.94;5053676;28;20037;-69
2022/09/06 09:05:29;;;;;;;0.80;0.80;;;;;;;21.64;66.42;100052.41;5053540;28;20053;-68
2022/09/06 09:08:08;;;;;;;0.70;0.60;;;;;;;21.66;66.52;100054.94;5053873;28;20132;-68
2022/09/06 09:10:44;;;;;;;0.57;0.57;;;;;;;21.68;66.42;100053.13;5053535;28;20045;-69
2022/09/06 09:13:25;;;;;;;1.58;1.13;;;;;;;21.65;66.22;100045.44;5053840;28;20403;-69
2022/09/06 09:15:54;;;;;;;1.33;1.20;;;;;;;21.69;66.53;100054.81;5053551;28;20063;-68
2022/09/06 09:18:27;;;;;;;1.13;1.03;;;;;;;21.62;66.29;100042.97;5053497;28;20052;-68
2022/09/06 09:20:57;;;;;;;0.65;0.65;;;;;;;21.60;66.14;100044.75;5054010;28;20324;-69
2022/09/06 09:23:28;;;;;;;0.88;0.77;;;;;;;21.55;66.51;100047.53;5053305;28;20037;-69
2022/09/06 09:26:03;;;;;;;0.60;0.60;;;;;;;21.50;66.56;100043.47;5053402;28;20491;-69
2022/09/06 09:28:32;;;;;;;1.20;0.85;;;;;;;21.44;66.93;100048.88;5053684;28;20143;-69
2022/09/06 09:31:00;;;;;;;0.65;0.45;;;;;;;21.36;67.23;100046.56;5053260;28;20037;-68
2022/09/06 09:33:32;;;;;;;1.38;1.25;;;;;;;21.27;68.09;100041.75;5053271;28;20037;-68
2022/09/06 09:36:06;;;;;;;1.40;1.30;;;;;;;21.09;69.48;100053.66;5053599;28;20071;-69
2022/09/06 09:38:42;;;;;;;0.73;0.73;;;;;;;20.93;70.38;100056.84;5053501;28;20037;-69
2022/09/06 09:41:27;;;;;;;0.98;0.75;;;;;;;20.75;71.21;100070.50;5053583;28;20068;-68
2022/09/06 09:43:59;;;;;;;0.50;0.50;;;;;;;20.55;72.00;100073.81;5055686;28;20135;-69
2022/09/06 09:46:34;;;;;;;0.95;0.70;;;;;;;20.37;73.03;100071.88;5057577;28;20076;-69
2022/09/06 09:49:08;;;;;;;1.10;1.00;;;;;;;20.23;74.09;100074.09;5057260;28;20132;-67
2022/09/06 09:51:40;;;;;;;1.13;1.02;;;;;;;20.08;74.90;100070.22;5060868;28;20569;-67
2022/09/06 09:54:14;;;;;;;1.00;0.95;;;;;;;19.92;76.32;100054.31;5064131;28;20087;-67
2022/09/06 09:56:50;;;;;;;2.25;1.63;;;;;;;19.78;77.45;100055.66;5067243;28;20053;-67
2022/09/06 09:59:23;;;;;;;0.68;0.68;;;;;;;19.66;78.35;100043.09;5058671;28;20087;-69
2022/09/06 10:01:55;;;;;;;1.67;1.23;;;;;;;19.55;78.77;100046.03;5071628;28;20045;-68
2022/09/06 10:04:29;;;;;;;0.70;0.70;;;;;;;19.53;79.59;100059.94;5074637;28;20546;-68
2022/09/06 10:07:16;;;;;;;0.82;0.82;;;;;;;19.41;80.18;100066.34;5056613;28;20037;-69
2022/09/06 10:09:49;;;;;;;1.13;1.02;;;;;;;19.24;80.61;100063.38;5064877;28;20061;-68
2022/09/06 10:12:28;;;;;;;2.33;0.80;;;;;;;19.25;81.04;100062.47;5076326;28;20406;-68
2022/09/06 10:14:57;;;;;;;0.63;0.63;;;;;;;19.22;81.78;100060.81;5076471;28;20048;-68
2022/09/06 10:17:35;;;;;;;2.08;1.02;;;;;;;19.22;82.33;100065.13;5060252;28;20091;-68
2022/09/06 10:20:08;;;;;;;1.50;1.38;;;;;;;19.26;82.65;100070.19;5063749;28;20135;-69
2022/09/06 10:22:52;;;;;;;1.15;1.00;;;;;;;19.09;82.75;100074.16;5063617;28;20372;-69
2022/09/06 10:25:45;;;;;;;1.17;1.08;;;;;;;18.88;83.18;100069.59;5055274;28;20098;-69
2022/09/06 10:28:29;;;;;;;1.40;1.13;;;;;;;18.84;83.70;100070.56;5065952;28;20177;-69
2022/09/06 10:31:22;;;;;;;2.85;2.28;;;;;;;18.93;84.32;100070.34;5056345;28;20052;-68
2022/09/06 10:34:03;;;;;;;1.17;1.08;;;;;;;18.92;84.45;100078.97;5056359;28;20491;-68
2022/09/06 10:36:36;;;;;;;0.70;0.70;;;;;;;18.88;84.39;100079.97;5056636;28;20040;-70
2022/09/06 10:39:15;;;;;;;0.98;0.88;;;;;;;18.89;84.75;100081.63;5056941;28;20048;-69
2022/09/06 10:42:10;;;;;;;1.20;1.10;;;;;;;18.87;84.98;100078.25;5056238;28;20049;-69
2022/09/06 10:44:58;;;;;;;1.23;1.00;;;;;;;18.74;85.27;100073.41;5067038;28;20052;-71
2022/09/06 10:47:32;;;;;;;0.93;0.88;;;;;;;18.70;85.64;100076.97;5058067;28;20461;-70
2022/09/06 10:50:03;;;;;;;1.08;1.02;;;;;;;18.59;86.00;100071.28;5067547;28;20139;-70
2022/09/06 10:52:41;;;;;;;1.85;1.23;;;;;;;18.55;86.23;100061.88;5066286;28;20040;-70
2022/09/06 10:55:14;;;;;;;1.73;1.13;;;;;;;18.50;86.72;100058.56;5056047;28;20387;-69
2022/09/06 10:57:49;;;;;;;1.20;1.05;;;;;;;18.50;86.81;100043.06;5060473;28;20041;-70
2022/09/06 11:00:45;;;;;;;1.48;1.25;;;;;;;18.55;87.04;100036.03;5066602;28;20040;-70
2022/09/06 11:03:24;;;;;;;1.67;1.58;;;;;;;18.66;87.13;100034.00;5070130;28;20163;-71
2022/09/06 11:06:13;;;;;;;1.45;1.35;;;;;;;18.73;87.19;100030.34;5055743;28;20033;-70
2022/09/06 11:08:52;;;;;;;1.27;1.17;;;;;;;18.91;87.30;100034.13;5055472;28;20450;-69
2022/09/06 11:11:34;;;;;;;2.58;1.67;;;;;;;19.06;87.32;100038.88;5056066;28;20049;-69
2022/09/06 11:14:11;;;;;;;1.40;0.88;;;;;;;19.10;86.90;100037.06;5054570;28;20056;-69
2022/09/06 11:16:48;;;;;;;1.33;1.23;;;;;;;19.14;86.80;100025.72;5055688;28;20105;-68
2022/09/06 11:19:21;;;;;;;1.20;1.02;;;;;;;19.06;86.41;100022.50;5055501;28;20048;-70
2022/09/06 11:22:22;;;;;;;0.85;0.80;;;;;;;19.14;86.40;100025.72;5055739;28;20115;-70
2022/09/06 11:25:22;;;;;;;0.75;0.75;;;;;;;19.23;86.13;100022.84;5055521;28;20051;-69
2022/09/06 11:27:55;;;;;;;0.85;0.80;;;;;;;19.30;85.99;100016.59;5055641;28;20458;-69
2022/09/06 11:30:28;;;;;;;1.23;1.13;;;;;;;19.20;85.97;99981.50;5054546;28;20052;-70
2022/09/06 11:33:13;;;;;;;1.83;1.25;;;;;;;19.52;85.85;100017.66;5054395;28;20045;-69
2022/09/06 11:35:43;;;;;;;2.80;1.50;;;;;;;19.51;85.60;100005.59;5054998;28;20578;-69
2022/09/06 11:38:23;;;;;;;1.50;1.33;;;;;;;19.62;85.45;100013.03;5053762;28;20163;-69
2022/09/06 11:40:59;;;;;;;1.10;0.88;;;;;;;19.66;85.20;100009.44;5054931;28;20138;-69
2022/09/06 11:43:44;;;;;;;1.10;0.90;;;;;;;19.70;84.85;100008.44;5055084;28;20041;-69
2022/09/06 11:46:58;;;;;;;0.82;0.82;;;;;;;19.75;84.73;100004.78;5055101;28;20079;-69
2022/09/06 11:49:36;;;;;;;0.80;0.80;;;;;;;19.79;84.99;99995.19;5054988;28;20049;-69
2022/09/06 11:52:30;;;;;;;1.75;1.30;;;;;;;19.83;85.31;99989.84;5054908;28;20056;-69
2022/09/06 11:54:59;;;;;;;2.72;1.25;;;;;;;19.87;85.68;99999.22;5055298;28;20091;-69
2022/09/06 11:57:29;;;;;;;0.55;0.55;;;;;;;19.92;85.92;99999.03;5055950;28;20041;-71